sensor_id;sensor_type;location;lat;lon;timestamp;P1;durP1;ratioP1;P2;durP2;ratioP2
15633;SDS011;14654;48.898;8.308;2022-12-24T00:02:20;4.83;;;1.77;;
15633;SDS011;14654;48.898;8.308;2022-12-24T00:04:45;5.37;;;2.17;;
15633;SDS011;14654;48.898;8.308;2022-12-24T00:07:11;6.03;;;2.23;;
15633;SDS011;14654;48.898;8.308;2022-12-24T00:09:36;5.63;;;2.27;;
15633;SDS011;14654;48.898;8.308;2022-12-24T00:12:01;6.10;;;2.47;;
15633;SDS011;14654;48.898;8.308;2022-12-24T00:14:27;7.17;;;2.60;;
15633;SDS011;14654;48.898;8.308;2022-12-24T00:16:53;4.87;;;2.50;;
15633;SDS011;14654;48.898;8.308;2022-12-24T00:19:18;6.20;;;2.50;;
15633;SDS011;14654;48.898;8.308;2022-12-24T00:21:43;8.10;;;2.53;;
15633;SDS011;14654;48.898;8.308;2022-12-24T00:24:08;7.67;;;2.57;;
15633;SDS011;14654;48.898;8.308;2022-12-24T00:26:34;7.10;;;2.37;;
15633;SDS011;14654;48.898;8.308;2022-12-24T00:28:59;6.00;;;2.17;;
15633;SDS011;14654;48.898;8.308;2022-12-24T00:31:25;5.13;;;2.27;;
15633;SDS011;14654;48.898;8.308;2022-12-24T00:33:50;4.27;;;2.00;;
15633;SDS011;14654;48.898;8.308;2022-12-24T00:36:16;4.07;;;1.77;;
15633;SDS011;14654;48.898;8.308;2022-12-24T00:38:42;4.27;;;1.87;;
15633;SDS011;14654;48.898;8.308;2022-12-24T00:41:08;5.77;;;2.07;;
15633;SDS011;14654;48.898;8.308;2022-12-24T00:43:49;6.40;;;2.17;;
15633;SDS011;14654;48.898;8.308;2022-12-24T00:46:18;6.83;;;2.60;;
15633;SDS011;14654;48.898;8.308;2022-12-24T00:48:43;6.57;;;2.60;;
15633;SDS011;14654;48.898;8.308;2022-12-24T00:51:09;7.20;;;2.47;;
15633;SDS011;14654;48.898;8.308;2022-12-24T00:53:34;7.10;;;2.40;;
15633;SDS011;14654;48.898;8.308;2022-12-24T00:55:59;5.03;;;2.10;;
15633;SDS011;14654;48.898;8.308;2022-12-24T00:58:25;5.20;;;2.20;;
15633;SDS011;14654;48.898;8.308;2022-12-24T01:00:50;4.67;;;1.80;;
15633;SDS011;14654;48.898;8.308;2022-12-24T01:03:15;4.07;;;1.60;;
15633;SDS011;14654;48.898;8.308;2022-12-24T01:05:40;5.37;;;1.70;;
15633;SDS011;14654;48.898;8.308;2022-12-24T01:08:06;4.70;;;1.80;;
15633;SDS011;14654;48.898;8.308;2022-12-24T01:10:31;4.30;;;1.90;;
15633;SDS011;14654;48.898;8.308;2022-12-24T01:12:59;4.17;;;1.70;;
15633;SDS011;14654;48.898;8.308;2022-12-24T01:15:26;3.77;;;1.77;;
15633;SDS011;14654;48.898;8.308;2022-12-24T01:17:52;4.07;;;1.90;;
15633;SDS011;14654;48.898;8.308;2022-12-24T01:20:17;4.30;;;1.80;;
15633;SDS011;14654;48.898;8.308;2022-12-24T01:22:42;2.97;;;1.60;;
15633;SDS011;14654;48.898;8.308;2022-12-24T01:25:08;4.60;;;1.90;;
15633;SDS011;14654;48.898;8.308;2022-12-24T01:27:34;4.33;;;1.80;;
15633;SDS011;14654;48.898;8.308;2022-12-24T01:29:59;4.10;;;2.00;;
15633;SDS011;14654;48.898;8.308;2022-12-24T01:32:25;3.80;;;1.70;;
15633;SDS011;14654;48.898;8.308;2022-12-24T01:34:50;4.27;;;1.70;;
15633;SDS011;14654;48.898;8.308;2022-12-24T01:37:15;3.90;;;1.80;;
15633;SDS011;14654;48.898;8.308;2022-12-24T01:39:41;5.23;;;1.87;;
15633;SDS011;14654;48.898;8.308;2022-12-24T01:42:14;4.13;;;1.63;;
15633;SDS011;14654;48.898;8.308;2022-12-24T01:48:04;5.00;;;1.73;;
15633;SDS011;14654;48.898;8.308;2022-12-24T01:50:33;3.73;;;1.67;;
15633;SDS011;14654;48.898;8.308;2022-12-24T01:52:59;4.70;;;2.00;;
15633;SDS011;14654;48.898;8.308;2022-12-24T01:55:24;4.77;;;2.10;;
15633;SDS011;14654;48.898;8.308;2022-12-24T01:57:51;5.07;;;2.13;;
15633;SDS011;14654;48.898;8.308;2022-12-24T02:00:21;5.30;;;2.40;;
15633;SDS011;14654;48.898;8.308;2022-12-24T02:02:47;9.30;;;3.07;;
15633;SDS011;14654;48.898;8.308;2022-12-24T02:07:41;6.97;;;3.07;;
15633;SDS011;14654;48.898;8.308;2022-12-24T02:10:08;6.67;;;2.70;;
15633;SDS011;14654;48.898;8.308;2022-12-24T02:12:34;8.17;;;2.67;;
15633;SDS011;14654;48.898;8.308;2022-12-24T02:15:02;7.47;;;3.20;;
15633;SDS011;14654;48.898;8.308;2022-12-24T02:31:14;8.23;;;3.00;;
15633;SDS011;14654;48.898;8.308;2022-12-24T02:33:48;9.57;;;3.10;;
15633;SDS011;14654;48.898;8.308;2022-12-24T02:39:00;10.23;;;3.93;;
15633;SDS011;14654;48.898;8.308;2022-12-24T02:41:30;10.73;;;3.17;;
15633;SDS011;14654;48.898;8.308;2022-12-24T02:44:18;8.40;;;3.60;;
15633;SDS011;14654;48.898;8.308;2022-12-24T02:46:46;8.17;;;3.00;;
15633;SDS011;14654;48.898;8.308;2022-12-24T02:49:13;8.60;;;2.90;;
15633;SDS011;14654;48.898;8.308;2022-12-24T02:51:38;8.20;;;2.87;;
15633;SDS011;14654;48.898;8.308;2022-12-24T02:54:04;6.97;;;2.67;;
15633;SDS011;14654;48.898;8.308;2022-12-24T02:56:41;5.07;;;2.43;;
15633;SDS011;14654;48.898;8.308;2022-12-24T02:59:35;6.73;;;2.13;;
15633;SDS011;14654;48.898;8.308;2022-12-24T03:02:09;5.87;;;2.47;;
15633;SDS011;14654;48.898;8.308;2022-12-24T03:12:38;6.50;;;2.20;;
15633;SDS011;14654;48.898;8.308;2022-12-24T03:15:08;4.20;;;1.97;;
15633;SDS011;14654;48.898;8.308;2022-12-24T03:17:37;4.90;;;2.10;;
15633;SDS011;14654;48.898;8.308;2022-12-24T03:20:05;5.37;;;2.20;;
15633;SDS011;14654;48.898;8.308;2022-12-24T03:22:33;5.67;;;2.37;;
15633;SDS011;14654;48.898;8.308;2022-12-24T03:25:00;5.30;;;2.50;;
15633;SDS011;14654;48.898;8.308;2022-12-24T03:27:26;4.30;;;2.10;;
15633;SDS011;14654;48.898;8.308;2022-12-24T03:29:54;5.13;;;2.07;;
15633;SDS011;14654;48.898;8.308;2022-12-24T03:32:24;5.10;;;2.30;;
15633;SDS011;14654;48.898;8.308;2022-12-24T03:34:52;6.67;;;2.40;;
15633;SDS011;14654;48.898;8.308;2022-12-24T03:37:17;7.57;;;2.90;;
15633;SDS011;14654;48.898;8.308;2022-12-24T03:39:43;4.33;;;2.13;;
15633;SDS011;14654;48.898;8.308;2022-12-24T03:42:09;8.00;;;2.70;;
15633;SDS011;14654;48.898;8.308;2022-12-24T03:44:34;6.53;;;2.43;;
15633;SDS011;14654;48.898;8.308;2022-12-24T03:47:00;6.37;;;2.73;;
15633;SDS011;14654;48.898;8.308;2022-12-24T03:49:25;6.30;;;2.70;;
15633;SDS011;14654;48.898;8.308;2022-12-24T03:51:50;3.73;;;2.20;;
15633;SDS011;14654;48.898;8.308;2022-12-24T03:54:15;4.97;;;2.13;;
15633;SDS011;14654;48.898;8.308;2022-12-24T03:56:41;5.83;;;2.40;;
15633;SDS011;14654;48.898;8.308;2022-12-24T03:59:06;7.20;;;2.97;;
15633;SDS011;14654;48.898;8.308;2022-12-24T04:01:31;5.40;;;2.90;;
15633;SDS011;14654;48.898;8.308;2022-12-24T04:03:57;6.80;;;2.47;;
15633;SDS011;14654;48.898;8.308;2022-12-24T04:06:22;5.97;;;2.53;;
15633;SDS011;14654;48.898;8.308;2022-12-24T04:08:47;7.77;;;3.07;;
15633;SDS011;14654;48.898;8.308;2022-12-24T04:11:13;8.00;;;3.17;;
15633;SDS011;14654;48.898;8.308;2022-12-24T04:13:40;9.60;;;3.27;;
15633;SDS011;14654;48.898;8.308;2022-12-24T04:16:09;4.87;;;2.03;;
15633;SDS011;14654;48.898;8.308;2022-12-24T04:18:36;6.90;;;3.23;;
15633;SDS011;14654;48.898;8.308;2022-12-24T04:21:03;7.97;;;3.43;;
15633;SDS011;14654;48.898;8.308;2022-12-24T04:23:30;5.27;;;3.23;;
15633;SDS011;14654;48.898;8.308;2022-12-24T04:26:03;6.37;;;3.10;;
15633;SDS011;14654;48.898;8.308;2022-12-24T04:28:30;6.07;;;3.23;;
15633;SDS011;14654;48.898;8.308;2022-12-24T04:30:57;8.30;;;3.30;;
15633;SDS011;14654;48.898;8.308;2022-12-24T04:33:23;6.93;;;3.10;;
15633;SDS011;14654;48.898;8.308;2022-12-24T04:35:48;5.27;;;2.50;;
15633;SDS011;14654;48.898;8.308;2022-12-24T04:38:14;7.47;;;2.93;;
15633;SDS011;14654;48.898;8.308;2022-12-24T04:40:39;8.77;;;2.87;;
15633;SDS011;14654;48.898;8.308;2022-12-24T04:43:04;7.57;;;3.23;;
15633;SDS011;14654;48.898;8.308;2022-12-24T04:45:30;6.73;;;3.37;;
15633;SDS011;14654;48.898;8.308;2022-12-24T04:47:56;11.83;;;3.70;;
15633;SDS011;14654;48.898;8.308;2022-12-24T04:50:21;8.50;;;3.00;;
15633;SDS011;14654;48.898;8.308;2022-12-24T04:52:46;6.20;;;2.67;;
15633;SDS011;14654;48.898;8.308;2022-12-24T04:55:11;5.50;;;2.60;;
15633;SDS011;14654;48.898;8.308;2022-12-24T04:57:37;6.33;;;2.47;;
15633;SDS011;14654;48.898;8.308;2022-12-24T05:00:03;5.93;;;2.50;;
15633;SDS011;14654;48.898;8.308;2022-12-24T05:02:32;6.97;;;2.50;;
15633;SDS011;14654;48.898;8.308;2022-12-24T05:04:57;7.40;;;2.80;;
15633;SDS011;14654;48.898;8.308;2022-12-24T05:07:23;9.60;;;3.20;;
15633;SDS011;14654;48.898;8.308;2022-12-24T05:09:48;9.20;;;2.97;;
15633;SDS011;14654;48.898;8.308;2022-12-24T05:12:13;8.63;;;3.23;;
15633;SDS011;14654;48.898;8.308;2022-12-24T05:14:39;9.83;;;3.00;;
15633;SDS011;14654;48.898;8.308;2022-12-24T05:17:04;8.43;;;2.90;;
15633;SDS011;14654;48.898;8.308;2022-12-24T05:19:30;8.07;;;3.00;;
15633;SDS011;14654;48.898;8.308;2022-12-24T05:21:55;9.13;;;3.13;;
15633;SDS011;14654;48.898;8.308;2022-12-24T05:24:39;7.07;;;2.77;;
15633;SDS011;14654;48.898;8.308;2022-12-24T05:27:23;6.37;;;2.33;;
15633;SDS011;14654;48.898;8.308;2022-12-24T05:29:49;7.97;;;2.77;;
15633;SDS011;14654;48.898;8.308;2022-12-24T05:32:14;6.70;;;2.87;;
15633;SDS011;14654;48.898;8.308;2022-12-24T05:34:39;6.90;;;2.57;;
15633;SDS011;14654;48.898;8.308;2022-12-24T05:37:05;8.60;;;2.63;;
15633;SDS011;14654;48.898;8.308;2022-12-24T05:39:30;6.30;;;2.23;;
15633;SDS011;14654;48.898;8.308;2022-12-24T05:41:55;5.33;;;1.97;;
15633;SDS011;14654;48.898;8.308;2022-12-24T05:44:20;5.17;;;2.10;;
15633;SDS011;14654;48.898;8.308;2022-12-24T05:46:46;7.00;;;2.47;;
15633;SDS011;14654;48.898;8.308;2022-12-24T05:49:11;9.23;;;2.63;;
15633;SDS011;14654;48.898;8.308;2022-12-24T05:51:37;8.40;;;2.73;;
15633;SDS011;14654;48.898;8.308;2022-12-24T05:54:04;7.10;;;2.43;;
15633;SDS011;14654;48.898;8.308;2022-12-24T05:56:30;5.37;;;2.20;;
15633;SDS011;14654;48.898;8.308;2022-12-24T05:58:56;7.43;;;2.43;;
15633;SDS011;14654;48.898;8.308;2022-12-24T06:01:22;6.03;;;2.40;;
15633;SDS011;14654;48.898;8.308;2022-12-24T06:03:47;7.63;;;2.43;;
15633;SDS011;14654;48.898;8.308;2022-12-24T06:06:17;7.43;;;2.30;;
15633;SDS011;14654;48.898;8.308;2022-12-24T06:08:50;6.87;;;2.70;;
15633;SDS011;14654;48.898;8.308;2022-12-24T06:11:17;9.33;;;3.20;;
15633;SDS011;14654;48.898;8.308;2022-12-24T06:13:44;9.43;;;3.57;;
15633;SDS011;14654;48.898;8.308;2022-12-24T06:16:13;7.20;;;2.90;;
15633;SDS011;14654;48.898;8.308;2022-12-24T06:18:40;6.73;;;2.70;;
15633;SDS011;14654;48.898;8.308;2022-12-24T06:21:06;7.03;;;2.80;;
15633;SDS011;14654;48.898;8.308;2022-12-24T06:23:33;7.13;;;2.90;;
15633;SDS011;14654;48.898;8.308;2022-12-24T06:26:00;5.60;;;2.30;;
15633;SDS011;14654;48.898;8.308;2022-12-24T06:28:28;5.73;;;2.17;;
15633;SDS011;14654;48.898;8.308;2022-12-24T06:30:54;7.50;;;2.57;;
15633;SDS011;14654;48.898;8.308;2022-12-24T06:33:20;7.77;;;2.70;;
15633;SDS011;14654;48.898;8.308;2022-12-24T06:35:45;6.77;;;2.43;;
15633;SDS011;14654;48.898;8.308;2022-12-24T06:38:11;5.13;;;2.33;;
15633;SDS011;14654;48.898;8.308;2022-12-24T06:40:38;6.67;;;2.53;;
15633;SDS011;14654;48.898;8.308;2022-12-24T06:43:03;6.63;;;2.80;;
15633;SDS011;14654;48.898;8.308;2022-12-24T06:45:28;6.73;;;2.37;;
15633;SDS011;14654;48.898;8.308;2022-12-24T06:47:54;7.20;;;2.77;;
15633;SDS011;14654;48.898;8.308;2022-12-24T06:50:20;7.73;;;2.83;;
15633;SDS011;14654;48.898;8.308;2022-12-24T06:52:45;5.57;;;2.43;;
15633;SDS011;14654;48.898;8.308;2022-12-24T06:55:11;6.50;;;2.37;;
15633;SDS011;14654;48.898;8.308;2022-12-24T06:57:36;4.97;;;2.10;;
15633;SDS011;14654;48.898;8.308;2022-12-24T07:00:02;5.20;;;2.43;;
15633;SDS011;14654;48.898;8.308;2022-12-24T07:02:27;5.77;;;2.10;;
15633;SDS011;14654;48.898;8.308;2022-12-24T07:04:53;5.70;;;2.07;;
15633;SDS011;14654;48.898;8.308;2022-12-24T07:07:18;5.37;;;2.20;;
15633;SDS011;14654;48.898;8.308;2022-12-24T07:09:43;7.23;;;2.53;;
15633;SDS011;14654;48.898;8.308;2022-12-24T07:12:08;7.07;;;1.80;;
15633;SDS011;14654;48.898;8.308;2022-12-24T07:14:34;7.40;;;2.50;;
15633;SDS011;14654;48.898;8.308;2022-12-24T07:16:59;6.60;;;2.30;;
15633;SDS011;14654;48.898;8.308;2022-12-24T07:19:25;6.67;;;2.40;;
15633;SDS011;14654;48.898;8.308;2022-12-24T07:21:50;6.63;;;2.30;;
15633;SDS011;14654;48.898;8.308;2022-12-24T07:24:15;5.83;;;2.13;;
15633;SDS011;14654;48.898;8.308;2022-12-24T07:26:41;6.00;;;2.40;;
15633;SDS011;14654;48.898;8.308;2022-12-24T07:29:06;6.63;;;2.37;;
15633;SDS011;14654;48.898;8.308;2022-12-24T07:31:32;6.17;;;2.47;;
15633;SDS011;14654;48.898;8.308;2022-12-24T07:33:58;8.03;;;2.80;;
15633;SDS011;14654;48.898;8.308;2022-12-24T07:36:23;7.23;;;2.90;;
15633;SDS011;14654;48.898;8.308;2022-12-24T07:38:49;7.87;;;2.03;;
15633;SDS011;14654;48.898;8.308;2022-12-24T07:41:15;6.40;;;2.27;;
15633;SDS011;14654;48.898;8.308;2022-12-24T07:43:40;8.37;;;2.93;;
15633;SDS011;14654;48.898;8.308;2022-12-24T07:46:05;7.13;;;2.60;;
15633;SDS011;14654;48.898;8.308;2022-12-24T07:48:31;8.53;;;2.60;;
15633;SDS011;14654;48.898;8.308;2022-12-24T07:50:57;6.93;;;2.90;;
15633;SDS011;14654;48.898;8.308;2022-12-24T07:53:23;6.17;;;2.80;;
15633;SDS011;14654;48.898;8.308;2022-12-24T07:55:49;6.07;;;2.60;;
15633;SDS011;14654;48.898;8.308;2022-12-24T07:58:15;7.93;;;2.90;;
15633;SDS011;14654;48.898;8.308;2022-12-24T08:00:41;8.23;;;3.10;;
15633;SDS011;14654;48.898;8.308;2022-12-24T08:03:06;6.63;;;2.60;;
15633;SDS011;14654;48.898;8.308;2022-12-24T08:05:34;6.47;;;2.50;;
15633;SDS011;14654;48.898;8.308;2022-12-24T08:08:00;4.93;;;2.17;;
15633;SDS011;14654;48.898;8.308;2022-12-24T08:10:26;6.60;;;2.33;;
15633;SDS011;14654;48.898;8.308;2022-12-24T08:12:51;8.63;;;2.93;;
15633;SDS011;14654;48.898;8.308;2022-12-24T08:15:17;7.43;;;3.23;;
15633;SDS011;14654;48.898;8.308;2022-12-24T08:17:43;6.10;;;2.30;;
15633;SDS011;14654;48.898;8.308;2022-12-24T08:20:09;8.73;;;3.17;;
15633;SDS011;14654;48.898;8.308;2022-12-24T08:22:35;6.20;;;3.17;;
15633;SDS011;14654;48.898;8.308;2022-12-24T08:25:00;5.07;;;2.30;;
15633;SDS011;14654;48.898;8.308;2022-12-24T08:27:25;6.93;;;2.70;;
15633;SDS011;14654;48.898;8.308;2022-12-24T08:29:51;4.70;;;2.50;;
15633;SDS011;14654;48.898;8.308;2022-12-24T08:32:16;6.87;;;2.40;;
15633;SDS011;14654;48.898;8.308;2022-12-24T08:34:42;6.30;;;2.60;;
15633;SDS011;14654;48.898;8.308;2022-12-24T08:37:07;7.10;;;2.40;;
15633;SDS011;14654;48.898;8.308;2022-12-24T08:39:32;6.27;;;2.50;;
15633;SDS011;14654;48.898;8.308;2022-12-24T08:41:58;5.90;;;2.20;;
15633;SDS011;14654;48.898;8.308;2022-12-24T08:44:23;5.20;;;2.27;;
15633;SDS011;14654;48.898;8.308;2022-12-24T08:46:48;6.00;;;2.47;;
15633;SDS011;14654;48.898;8.308;2022-12-24T08:49:14;6.00;;;2.47;;
15633;SDS011;14654;48.898;8.308;2022-12-24T08:51:40;5.57;;;2.43;;
15633;SDS011;14654;48.898;8.308;2022-12-24T08:54:05;5.70;;;2.20;;
15633;SDS011;14654;48.898;8.308;2022-12-24T08:56:30;4.23;;;2.13;;
15633;SDS011;14654;48.898;8.308;2022-12-24T08:58:56;5.67;;;2.57;;
15633;SDS011;14654;48.898;8.308;2022-12-24T09:01:21;4.60;;;2.07;;
15633;SDS011;14654;48.898;8.308;2022-12-24T09:03:46;6.43;;;2.37;;
15633;SDS011;14654;48.898;8.308;2022-12-24T09:06:12;6.73;;;3.00;;
15633;SDS011;14654;48.898;8.308;2022-12-24T09:08:38;4.00;;;1.80;;
15633;SDS011;14654;48.898;8.308;2022-12-24T09:13:28;5.23;;;2.43;;
15633;SDS011;14654;48.898;8.308;2022-12-24T09:15:54;5.80;;;2.90;;
15633;SDS011;14654;48.898;8.308;2022-12-24T09:18:19;8.60;;;4.10;;
15633;SDS011;14654;48.898;8.308;2022-12-24T09:20:45;5.83;;;4.20;;
15633;SDS011;14654;48.898;8.308;2022-12-24T09:23:10;8.13;;;4.33;;
15633;SDS011;14654;48.898;8.308;2022-12-24T09:25:39;7.67;;;4.23;;
15633;SDS011;14654;48.898;8.308;2022-12-24T09:28:08;6.93;;;4.10;;
15633;SDS011;14654;48.898;8.308;2022-12-24T09:30:34;7.30;;;3.50;;
15633;SDS011;14654;48.898;8.308;2022-12-24T09:33:00;5.27;;;2.77;;
15633;SDS011;14654;48.898;8.308;2022-12-24T09:35:25;5.53;;;2.63;;
15633;SDS011;14654;48.898;8.308;2022-12-24T09:37:50;8.43;;;3.03;;
15633;SDS011;14654;48.898;8.308;2022-12-24T09:40:28;9.53;;;3.50;;
15633;SDS011;14654;48.898;8.308;2022-12-24T09:43:02;7.23;;;3.70;;
15633;SDS011;14654;48.898;8.308;2022-12-24T09:45:37;8.00;;;4.00;;
15633;SDS011;14654;48.898;8.308;2022-12-24T09:48:11;7.83;;;3.53;;
15633;SDS011;14654;48.898;8.308;2022-12-24T09:50:41;5.23;;;2.77;;
15633;SDS011;14654;48.898;8.308;2022-12-24T09:53:18;7.67;;;2.80;;
15633;SDS011;14654;48.898;8.308;2022-12-24T09:55:50;7.57;;;2.93;;
15633;SDS011;14654;48.898;8.308;2022-12-24T10:00:53;6.43;;;2.93;;
15633;SDS011;14654;48.898;8.308;2022-12-24T10:03:20;6.60;;;2.80;;
15633;SDS011;14654;48.898;8.308;2022-12-24T10:05:51;5.57;;;2.40;;
15633;SDS011;14654;48.898;8.308;2022-12-24T10:22:28;6.93;;;3.13;;
15633;SDS011;14654;48.898;8.308;2022-12-24T10:27:23;6.03;;;3.20;;
15633;SDS011;14654;48.898;8.308;2022-12-24T10:29:56;6.40;;;3.27;;
15633;SDS011;14654;48.898;8.308;2022-12-24T10:32:27;7.47;;;2.87;;
15633;SDS011;14654;48.898;8.308;2022-12-24T10:35:38;7.70;;;3.33;;
15633;SDS011;14654;48.898;8.308;2022-12-24T10:37:47;5.40;;;2.73;;
15633;SDS011;14654;48.898;8.308;2022-12-24T10:40:30;7.13;;;3.03;;
15633;SDS011;14654;48.898;8.308;2022-12-24T10:45:49;5.83;;;2.70;;
15633;SDS011;14654;48.898;8.308;2022-12-24T10:48:24;6.53;;;2.80;;
15633;SDS011;14654;48.898;8.308;2022-12-24T10:50:55;5.50;;;2.57;;
15633;SDS011;14654;48.898;8.308;2022-12-24T10:53:37;6.20;;;3.00;;
15633;SDS011;14654;48.898;8.308;2022-12-24T10:56:08;6.20;;;2.73;;
15633;SDS011;14654;48.898;8.308;2022-12-24T10:58:39;4.87;;;3.37;;
15633;SDS011;14654;48.898;8.308;2022-12-24T11:01:08;7.10;;;3.40;;
15633;SDS011;14654;48.898;8.308;2022-12-24T11:03:35;6.47;;;3.67;;
15633;SDS011;14654;48.898;8.308;2022-12-24T11:06:06;8.63;;;4.33;;
15633;SDS011;14654;48.898;8.308;2022-12-24T11:08:37;7.00;;;4.50;;
15633;SDS011;14654;48.898;8.308;2022-12-24T11:11:10;8.70;;;6.03;;
15633;SDS011;14654;48.898;8.308;2022-12-24T11:16:24;7.50;;;5.43;;
15633;SDS011;14654;48.898;8.308;2022-12-24T11:19:01;10.97;;;5.77;;
15633;SDS011;14654;48.898;8.308;2022-12-24T11:21:32;8.17;;;4.67;;
15633;SDS011;14654;48.898;8.308;2022-12-24T11:26:36;7.93;;;4.70;;
15633;SDS011;14654;48.898;8.308;2022-12-24T11:29:26;7.17;;;4.70;;
15633;SDS011;14654;48.898;8.308;2022-12-24T11:31:51;7.47;;;5.20;;
15633;SDS011;14654;48.898;8.308;2022-12-24T11:34:34;5.93;;;4.33;;
15633;SDS011;14654;48.898;8.308;2022-12-24T11:39:56;6.30;;;4.10;;
15633;SDS011;14654;48.898;8.308;2022-12-24T11:42:34;7.57;;;3.87;;
15633;SDS011;14654;48.898;8.308;2022-12-24T11:45:06;9.00;;;3.97;;
15633;SDS011;14654;48.898;8.308;2022-12-24T11:47:45;8.27;;;3.73;;
15633;SDS011;14654;48.898;8.308;2022-12-24T11:50:18;7.33;;;3.20;;
15633;SDS011;14654;48.898;8.308;2022-12-24T11:52:46;7.73;;;4.67;;
15633;SDS011;14654;48.898;8.308;2022-12-24T11:57:45;9.77;;;5.60;;
15633;SDS011;14654;48.898;8.308;2022-12-24T12:00:17;7.87;;;5.30;;
15633;SDS011;14654;48.898;8.308;2022-12-24T12:02:44;10.80;;;5.87;;
15633;SDS011;14654;48.898;8.308;2022-12-24T12:05:14;10.47;;;5.73;;
15633;SDS011;14654;48.898;8.308;2022-12-24T12:07:43;10.07;;;6.23;;
15633;SDS011;14654;48.898;8.308;2022-12-24T12:10:22;7.47;;;4.73;;
15633;SDS011;14654;48.898;8.308;2022-12-24T12:15:46;8.20;;;5.50;;
15633;SDS011;14654;48.898;8.308;2022-12-24T12:18:17;9.37;;;4.90;;
15633;SDS011;14654;48.898;8.308;2022-12-24T12:20:51;6.07;;;3.83;;
15633;SDS011;14654;48.898;8.308;2022-12-24T12:23:23;6.63;;;3.30;;
15633;SDS011;14654;48.898;8.308;2022-12-24T12:25:56;5.40;;;3.10;;
15633;SDS011;14654;48.898;8.308;2022-12-24T12:30:55;7.43;;;3.10;;
15633;SDS011;14654;48.898;8.308;2022-12-24T12:33:31;4.50;;;2.50;;
15633;SDS011;14654;48.898;8.308;2022-12-24T12:36:04;4.03;;;2.17;;
15633;SDS011;14654;48.898;8.308;2022-12-24T12:38:33;6.83;;;2.53;;
15633;SDS011;14654;48.898;8.308;2022-12-24T12:41:34;4.53;;;2.50;;
15633;SDS011;14654;48.898;8.308;2022-12-24T12:46:32;4.80;;;2.00;;
15633;SDS011;14654;48.898;8.308;2022-12-24T12:51:56;7.30;;;2.80;;
15633;SDS011;14654;48.898;8.308;2022-12-24T12:54:43;6.90;;;2.50;;
15633;SDS011;14654;48.898;8.308;2022-12-24T12:57:25;5.00;;;2.43;;
15633;SDS011;14654;48.898;8.308;2022-12-24T12:59:59;5.10;;;2.10;;
15633;SDS011;14654;48.898;8.308;2022-12-24T13:08:27;5.23;;;1.83;;
15633;SDS011;14654;48.898;8.308;2022-12-24T13:13:55;5.33;;;2.53;;
15633;SDS011;14654;48.898;8.308;2022-12-24T13:22:13;6.00;;;2.37;;
15633;SDS011;14654;48.898;8.308;2022-12-24T13:24:40;7.03;;;2.50;;
15633;SDS011;14654;48.898;8.308;2022-12-24T13:27:17;6.50;;;2.63;;
15633;SDS011;14654;48.898;8.308;2022-12-24T13:33:01;6.90;;;2.50;;
15633;SDS011;14654;48.898;8.308;2022-12-24T13:35:32;5.87;;;2.30;;
15633;SDS011;14654;48.898;8.308;2022-12-24T13:40:52;5.70;;;2.50;;
15633;SDS011;14654;48.898;8.308;2022-12-24T13:43:18;5.90;;;2.03;;
15633;SDS011;14654;48.898;8.308;2022-12-24T13:45:44;5.90;;;2.30;;
15633;SDS011;14654;48.898;8.308;2022-12-24T13:56:06;6.37;;;3.07;;
15633;SDS011;14654;48.898;8.308;2022-12-24T13:58:41;4.60;;;2.30;;
15633;SDS011;14654;48.898;8.308;2022-12-24T14:01:15;7.77;;;2.80;;
15633;SDS011;14654;48.898;8.308;2022-12-24T14:06:11;5.77;;;2.73;;
15633;SDS011;14654;48.898;8.308;2022-12-24T14:08:45;5.80;;;3.30;;
15633;SDS011;14654;48.898;8.308;2022-12-24T14:11:15;6.87;;;3.43;;
15633;SDS011;14654;48.898;8.308;2022-12-24T14:16:22;6.30;;;3.20;;
15633;SDS011;14654;48.898;8.308;2022-12-24T14:18:59;7.03;;;3.50;;
15633;SDS011;14654;48.898;8.308;2022-12-24T14:21:28;5.53;;;2.97;;
15633;SDS011;14654;48.898;8.308;2022-12-24T14:23:58;6.40;;;2.73;;
15633;SDS011;14654;48.898;8.308;2022-12-24T14:26:28;5.27;;;2.50;;
15633;SDS011;14654;48.898;8.308;2022-12-24T14:28:57;5.40;;;2.60;;
15633;SDS011;14654;48.898;8.308;2022-12-24T14:31:50;5.50;;;2.63;;
15633;SDS011;14654;48.898;8.308;2022-12-24T14:34:17;6.23;;;2.57;;
15633;SDS011;14654;48.898;8.308;2022-12-24T14:36:43;3.20;;;2.20;;
15633;SDS011;14654;48.898;8.308;2022-12-24T14:39:10;6.13;;;3.00;;
15633;SDS011;14654;48.898;8.308;2022-12-24T14:44:46;6.37;;;2.87;;
15633;SDS011;14654;48.898;8.308;2022-12-24T14:47:24;5.30;;;3.10;;
15633;SDS011;14654;48.898;8.308;2022-12-24T14:55:40;4.57;;;2.90;;
15633;SDS011;14654;48.898;8.308;2022-12-24T14:58:23;5.37;;;2.80;;
15633;SDS011;14654;48.898;8.308;2022-12-24T15:01:22;4.17;;;2.97;;
15633;SDS011;14654;48.898;8.308;2022-12-24T15:04:04;5.17;;;2.50;;
15633;SDS011;14654;48.898;8.308;2022-12-24T15:06:46;4.13;;;2.30;;
15633;SDS011;14654;48.898;8.308;2022-12-24T15:09:23;4.97;;;2.43;;
15633;SDS011;14654;48.898;8.308;2022-12-24T15:11:53;5.27;;;2.23;;
15633;SDS011;14654;48.898;8.308;2022-12-24T15:14:20;3.90;;;2.50;;
15633;SDS011;14654;48.898;8.308;2022-12-24T15:16:52;3.70;;;2.03;;
15633;SDS011;14654;48.898;8.308;2022-12-24T15:19:27;4.77;;;2.40;;
15633;SDS011;14654;48.898;8.308;2022-12-24T15:21:58;4.50;;;2.17;;
15633;SDS011;14654;48.898;8.308;2022-12-24T15:24:29;3.70;;;2.10;;
15633;SDS011;14654;48.898;8.308;2022-12-24T15:26:59;6.10;;;2.43;;
15633;SDS011;14654;48.898;8.308;2022-12-24T15:29:30;3.37;;;2.10;;
15633;SDS011;14654;48.898;8.308;2022-12-24T15:32:02;5.87;;;2.57;;
15633;SDS011;14654;48.898;8.308;2022-12-24T15:34:42;5.67;;;2.60;;
15633;SDS011;14654;48.898;8.308;2022-12-24T15:37:19;6.33;;;2.57;;
15633;SDS011;14654;48.898;8.308;2022-12-24T15:39:53;4.17;;;2.63;;
15633;SDS011;14654;48.898;8.308;2022-12-24T15:42:20;5.73;;;2.60;;
15633;SDS011;14654;48.898;8.308;2022-12-24T15:47:25;5.27;;;2.63;;
15633;SDS011;14654;48.898;8.308;2022-12-24T15:49:53;3.87;;;2.27;;
15633;SDS011;14654;48.898;8.308;2022-12-24T15:52:19;4.83;;;2.20;;
15633;SDS011;14654;48.898;8.308;2022-12-24T15:54:50;5.83;;;2.40;;
15633;SDS011;14654;48.898;8.308;2022-12-24T15:57:22;5.30;;;2.73;;
15633;SDS011;14654;48.898;8.308;2022-12-24T15:59:50;3.37;;;2.50;;
15633;SDS011;14654;48.898;8.308;2022-12-24T16:05:36;5.63;;;2.90;;
15633;SDS011;14654;48.898;8.308;2022-12-24T16:10:44;3.60;;;2.77;;
15633;SDS011;14654;48.898;8.308;2022-12-24T16:13:13;5.17;;;3.30;;
15633;SDS011;14654;48.898;8.308;2022-12-24T16:15:49;5.47;;;3.70;;
15633;SDS011;14654;48.898;8.308;2022-12-24T16:18:25;6.47;;;3.87;;
15633;SDS011;14654;48.898;8.308;2022-12-24T16:20:55;5.20;;;3.57;;
15633;SDS011;14654;48.898;8.308;2022-12-24T16:23:29;5.40;;;3.20;;
15633;SDS011;14654;48.898;8.308;2022-12-24T16:26:01;5.50;;;3.47;;
15633;SDS011;14654;48.898;8.308;2022-12-24T16:28:26;5.50;;;3.83;;
15633;SDS011;14654;48.898;8.308;2022-12-24T16:30:51;5.83;;;4.03;;
15633;SDS011;14654;48.898;8.308;2022-12-24T16:33:19;5.93;;;3.77;;
15633;SDS011;14654;48.898;8.308;2022-12-24T16:35:45;4.60;;;3.83;;
15633;SDS011;14654;48.898;8.308;2022-12-24T16:38:11;5.47;;;4.60;;
15633;SDS011;14654;48.898;8.308;2022-12-24T16:40:38;6.77;;;4.17;;
15633;SDS011;14654;48.898;8.308;2022-12-24T16:43:04;6.93;;;4.53;;
15633;SDS011;14654;48.898;8.308;2022-12-24T16:45:48;7.13;;;5.50;;
15633;SDS011;14654;48.898;8.308;2022-12-24T16:48:21;6.87;;;5.20;;
15633;SDS011;14654;48.898;8.308;2022-12-24T16:50:49;7.57;;;6.47;;
15633;SDS011;14654;48.898;8.308;2022-12-24T16:53:15;8.77;;;6.27;;
15633;SDS011;14654;48.898;8.308;2022-12-24T16:55:42;6.67;;;5.83;;
15633;SDS011;14654;48.898;8.308;2022-12-24T16:58:11;6.90;;;5.83;;
15633;SDS011;14654;48.898;8.308;2022-12-24T17:00:37;6.27;;;5.67;;
15633;SDS011;14654;48.898;8.308;2022-12-24T17:03:04;7.80;;;5.27;;
15633;SDS011;14654;48.898;8.308;2022-12-24T17:05:29;7.43;;;5.00;;